Time;durP1;ratioP1;P1;durP2;ratioP2;P2;SDS_P1;SDS_P2;PMS_P1;PMS_P2;Temp;Humidity;BMP_temperature;BMP_pressure;BME280_temperature;BME280_humidity;BME280_pressure;Samples;Min_cycle;Max_cycle;Signal;HPM_P1;HPM_P2
2022/12/10 00:00:34;;;;;;;7.09;6.49;;;;;;;4.63;78.48;101050.47;449798;117;922515;-72
2022/12/10 00:01:38;;;;;;;6.64;6.12;;;;;;;4.63;78.47;101048.58;449564;118;922758;-71
2022/12/10 00:02:41;;;;;;;6.61;6.02;;;;;;;4.61;78.56;101056.02;449772;118;922507;-72
2022/12/10 00:03:45;;;;;;;7.21;6.71;;;;;;;4.61;78.48;101055.17;449647;117;922532;-71
2022/12/10 00:04:48;;;;;;;6.43;5.82;;;;;;;4.61;78.53;101061.42;449574;118;922541;-72
2022/12/10 00:05:52;;;;;;;6.59;6.09;;;;;;;4.61;78.59;101056.02;449576;116;922551;-71
2022/12/10 00:06:55;;;;;;;7.40;6.72;;;;;;;4.63;78.74;101058.56;449579;118;930586;-72
2022/12/10 00:07:58;;;;;;;6.94;6.28;;;;;;;4.63;78.62;101060.42;449665;118;922594;-71
2022/12/10 00:09:04;;;;;;;5.98;5.58;;;;;;;4.63;78.64;101055.02;449660;118;923024;-71
2022/12/10 00:10:07;;;;;;;6.96;6.36;;;;;;;4.63;78.68;101058.56;449459;118;923034;-71
2022/12/10 00:11:14;;;;;;;6.88;6.38;;;;;;;4.63;78.75;101064.78;449410;118;923310;-71
2022/12/10 00:12:17;;;;;;;6.94;6.41;;;;;;;4.65;78.74;101063.78;449435;118;922890;-71
2022/12/10 00:13:20;;;;;;;6.22;5.71;;;;;;;4.63;78.70;101064.78;449660;118;922563;-71
2022/12/10 00:14:24;;;;;;;7.54;6.85;;;;;;;4.63;78.70;101062.08;449672;118;922683;-71
2022/12/10 00:15:27;;;;;;;7.95;7.03;;;;;;;4.63;78.74;101063.13;449643;118;922889;-71
2022/12/10 00:16:30;;;;;;;7.11;6.51;;;;;;;4.62;78.80;101059.57;449607;116;922639;-72
2022/12/10 00:17:34;;;;;;;6.96;6.36;;;;;;;4.61;78.85;101066.83;449584;117;922598;-71
2022/12/10 00:18:37;;;;;;;6.40;5.87;;;;;;;4.60;78.87;101054.33;449660;118;924968;-71
2022/12/10 00:19:41;;;;;;;6.46;5.94;;;;;;;4.61;78.84;101060.58;449587;118;922475;-72
2022/12/10 00:20:44;;;;;;;6.59;6.01;;;;;;;4.61;78.89;101055.17;449620;116;922513;-72
2022/12/10 00:21:47;;;;;;;7.16;6.56;;;;;;;4.61;78.90;101060.58;449688;117;922988;-72
2022/12/10 00:22:50;;;;;;;6.39;5.87;;;;;;;4.60;79.00;101051.63;449638;118;923012;-72
2022/12/10 00:23:54;;;;;;;6.14;5.67;;;;;;;4.60;78.98;101056.17;449687;118;922935;-72
2022/12/10 00:24:57;;;;;;;6.88;6.38;;;;;;;4.60;78.95;101056.17;449614;118;922656;-72
2022/12/10 00:26:08;;;;;;;6.66;6.02;;;;;;;4.61;79.15;101061.42;449688;118;922890;-70
2022/12/10 00:27:12;;;;;;;6.83;6.30;;;;;;;4.61;79.15;101061.42;449447;118;922995;-70
2022/12/10 00:28:15;;;;;;;7.20;6.46;;;;;;;4.62;79.19;101054.17;449676;117;923092;-70
2022/12/10 00:29:18;;;;;;;6.30;5.80;;;;;;;4.64;79.25;101054.83;449678;118;922915;-71
2022/12/10 00:30:21;;;;;;;7.03;6.43;;;;;;;4.63;79.25;101043.17;449685;118;922677;-72
2022/12/10 00:31:27;;;;;;;6.51;6.01;;;;;;;4.65;79.19;101042.17;449661;116;922565;-72
2022/12/10 00:32:31;;;;;;;6.72;6.16;;;;;;;4.64;79.16;101044.03;449454;118;922883;-71
2022/12/10 00:33:34;;;;;;;6.95;6.42;;;;;;;4.61;79.21;101034.41;449618;118;922980;-72
2022/12/10 00:34:38;;;;;;;7.07;6.47;;;;;;;4.62;79.18;101040.66;449580;117;922917;-71
2022/12/10 00:35:41;;;;;;;7.44;6.85;;;;;;;4.60;79.25;101023.77;449588;116;923021;-71
2022/12/10 00:36:47;;;;;;;6.74;6.23;;;;;;;4.57;79.37;101041.16;449546;117;922427;-71
2022/12/10 00:37:51;;;;;;;7.69;6.93;;;;;;;4.57;79.34;101037.62;449422;118;922515;-72
2022/12/10 00:38:54;;;;;;;7.21;6.61;;;;;;;4.54;79.28;101041.48;449614;118;922953;-71
2022/12/10 00:39:57;;;;;;;7.32;6.62;;;;;;;4.53;79.28;101038.93;449695;118;922634;-71
2022/12/10 00:41:00;;;;;;;7.80;7.09;;;;;;;4.51;79.34;101035.57;449638;118;922779;-71
2022/12/10 00:42:03;;;;;;;7.92;7.17;;;;;;;4.49;79.41;101040.28;449639;117;922879;-71
2022/12/10 00:43:06;;;;;;;7.33;6.74;;;;;;;4.48;79.50;101044.83;449549;118;922532;-71
2022/12/10 00:44:10;;;;;;;8.21;7.56;;;;;;;4.47;79.54;101035.03;449578;118;930765;-72
2022/12/10 00:45:14;;;;;;;8.98;7.82;;;;;;;4.48;79.59;101039.43;442848;119;922668;-72
2022/12/10 00:46:18;;;;;;;6.78;6.21;;;;;;;4.48;79.60;101038.58;443112;118;922667;-72
2022/12/10 00:47:21;;;;;;;8.02;7.36;;;;;;;4.48;79.78;101033.18;449501;118;922444;-71
2022/12/10 00:48:25;;;;;;;8.22;7.54;;;;;;;4.48;79.81;101030.48;449551;118;930452;-72
2022/12/10 00:49:28;;;;;;;8.48;7.79;;;;;;;4.47;79.86;101032.34;449578;117;922880;-71
2022/12/10 00:50:35;;;;;;;8.09;7.40;;;;;;;4.46;79.84;101022.57;449674;117;922490;-70
2022/12/10 00:51:36;;;;;;;9.50;8.32;;;;;;;4.45;79.85;101023.58;449318;118;922724;-71
2022/12/10 00:52:39;;;;;;;8.18;7.47;;;;;;;4.42;79.78;101021.19;449584;117;922854;-71
2022/12/10 00:53:43;;;;;;;8.99;8.29;;;;;;;4.41;79.86;101027.59;449711;118;923004;-71
2022/12/10 00:54:46;;;;;;;8.63;7.93;;;;;;;4.39;79.85;101020.68;449628;118;922524;-71
2022/12/10 00:55:50;;;;;;;8.93;8.05;;;;;;;4.37;79.85;101018.14;449637;116;922840;-71
2022/12/10 00:56:53;;;;;;;9.21;8.40;;;;;;;4.35;79.85;101013.92;449666;117;922636;-71
2022/12/10 00:57:56;;;;;;;9.39;8.64;;;;;;;4.33;79.90;101024.03;449601;118;922847;-71
2022/12/10 00:59:00;;;;;;;9.08;8.31;;;;;;;4.31;79.88;101020.64;455657;113;922483;-71
2022/12/10 01:00:04;;;;;;;9.60;8.69;;;;;;;4.29;80.04;101023.53;457439;115;922674;-72
2022/12/10 01:01:11;;;;;;;8.36;7.71;;;;;;;4.27;79.97;101020.13;457422;114;922508;-71
2022/12/10 01:02:14;;;;;;;9.56;8.76;;;;;;;4.27;80.07;101025.53;457278;116;922486;-71
2022/12/10 01:03:17;;;;;;;8.96;8.21;;;;;;;4.26;80.22;101023.83;457466;115;922955;-71
2022/12/10 01:04:21;;;;;;;8.35;7.66;;;;;;;4.24;80.14;101033.97;457409;115;922490;-71
2022/12/10 01:05:24;;;;;;;8.85;8.08;;;;;;;4.24;80.18;101023.17;457395;115;930916;-71
2022/12/10 01:06:43;;;;;;;11.95;8.52;;;;;;;4.25;80.36;101027.53;457278;114;922615;-71
2022/12/10 01:07:46;;;;;;;8.51;7.81;;;;;;;4.26;80.42;101018.44;457254;116;922755;-72
2022/12/10 01:08:52;;;;;;;10.41;9.56;;;;;;;4.27;80.45;101017.44;457484;116;922482;-71
2022/12/10 01:09:56;;;;;;;9.49;8.62;;;;;;;4.27;80.38;101016.58;457298;116;922540;-72
2022/12/10 01:10:59;;;;;;;9.46;8.65;;;;;;;4.25;80.40;101015.89;457475;114;922903;-71
2022/12/10 01:12:03;;;;;;;9.21;8.42;;;;;;;4.23;80.59;101010.67;457466;116;922565;-71
2022/12/10 01:13:06;;;;;;;9.25;8.55;;;;;;;4.23;80.48;101018.78;457306;116;922518;-72
2022/12/10 01:14:13;;;;;;;12.17;8.68;;;;;;;4.22;80.51;101017.08;457487;116;922547;-72
2022/12/10 01:15:16;;;;;;;8.26;7.58;;;;;;;4.22;80.66;101018.93;457273;116;922874;-72
2022/12/10 01:16:21;;;;;;;10.09;9.19;;;;;;;4.20;80.66;101016.39;457431;114;922509;-74
2022/12/10 01:17:26;;;;;;;9.86;9.05;;;;;;;4.20;80.68;101014.53;457301;116;922514;-74
2022/12/10 01:18:30;;;;;;;8.96;8.26;;;;;;;4.20;80.59;101019.08;457520;116;922493;-72
2022/12/10 01:19:34;;;;;;;8.79;8.11;;;;;;;4.19;80.79;101017.39;457433;115;922501;-73
2022/12/10 01:20:37;;;;;;;9.04;8.31;;;;;;;4.19;80.71;101015.53;457288;114;930521;-72
2022/12/10 01:21:41;;;;;;;9.95;9.21;;;;;;;4.19;80.76;101014.69;457483;116;923297;-71
2022/12/10 01:22:44;;;;;;;8.96;8.21;;;;;;;4.20;80.90;101005.59;457383;116;922898;-72
2022/12/10 01:23:49;;;;;;;8.79;8.11;;;;;;;4.19;80.86;101010.14;457450;116;930530;-73
2022/12/10 01:24:52;;;;;;;9.19;8.39;;;;;;;4.19;80.86;101003.89;457358;116;922596;-73
2022/12/10 01:25:58;;;;;;;9.13;8.31;;;;;;;4.18;80.97;101011.17;457488;116;922499;-72
2022/12/10 01:27:02;;;;;;;9.48;8.59;;;;;;;4.17;81.00;101011.33;457284;116;922488;-73
2022/12/10 01:28:05;;;;;;;8.91;8.22;;;;;;;4.17;80.93;101003.23;457479;116;922657;-71
2022/12/10 01:29:10;;;;;;;9.40;8.51;;;;;;;4.16;81.12;101009.63;457471;116;922899;-72
2022/12/10 01:30:15;;;;;;;9.62;8.44;;;;;;;4.16;81.19;101012.33;457281;116;922856;-72
2022/12/10 01:31:22;;;;;;;9.82;8.89;;;;;;;4.15;81.04;101013.33;457485;114;922518;-72
2022/12/10 01:32:25;;;;;;;8.92;8.22;;;;;;;4.16;81.28;101015.03;457099;115;923030;-72
2022/12/10 01:33:29;;;;;;;9.56;8.59;;;;;;;4.17;81.27;101019.42;457513;116;922482;-72
2022/12/10 01:34:32;;;;;;;9.23;8.41;;;;;;;4.17;81.23;101014.03;457385;116;922765;-72
2022/12/10 01:35:38;;;;;;;10.11;9.19;;;;;;;4.20;81.27;101016.39;457404;116;930437;-72
2022/12/10 01:36:45;;;;;;;9.06;8.28;;;;;;;4.22;81.33;101011.68;457294;116;922555;-72
2022/12/10 01:37:48;;;;;;;9.51;8.72;;;;;;;4.22;81.36;101016.23;457287;116;922558;-72
2022/12/10 01:38:52;;;;;;;9.07;8.28;;;;;;;4.24;81.39;101014.23;457486;116;922860;-73
2022/12/10 01:39:55;;;;;;;9.79;8.99;;;;;;;4.24;81.42;101016.92;457337;116;922746;-71
2022/12/10 01:41:01;;;;;;;9.11;8.31;;;;;;;4.24;81.42;101016.92;457269;114;930395;-71
2022/12/10 01:42:04;;;;;;;9.10;8.40;;;;;;;4.25;81.27;101022.14;457381;116;930515;-72
2022/12/10 01:43:10;;;;;;;8.57;7.87;;;;;;;4.26;81.23;101023.83;457479;116;922478;-72
2022/12/10 01:44:17;;;;;;;10.18;9.33;;;;;;;4.26;81.30;101021.14;457201;115;922961;-72
2022/12/10 01:45:20;;;;;;;9.45;8.66;;;;;;;4.28;81.33;101015.58;457340;116;922590;-72
2022/12/10 01:46:29;;;;;;;9.75;8.79;;;;;;;4.29;81.47;101020.83;457467;114;922505;-72
2022/12/10 01:47:33;;;;;;;9.06;8.27;;;;;;;4.31;81.35;101023.34;457326;116;922682;-72
2022/12/10 01:48:36;;;;;;;9.63;8.75;;;;;;;4.31;81.32;101026.88;457451;116;922548;-72
2022/12/10 01:49:40;;;;;;;9.73;8.61;;;;;;;4.32;81.49;101027.73;457521;115;922600;-70
2022/12/10 01:50:44;;;;;;;9.96;9.04;;;;;;;4.33;81.40;101021.33;457375;114;922590;-72
2022/12/10 01:51:49;;;;;;;10.81;9.76;;;;;;;4.33;81.49;101022.18;457460;116;922860;-72
2022/12/10 01:52:53;;;;;;;10.55;9.59;;;;;;;4.35;81.54;101028.27;457253;116;922850;-71
2022/12/10 01:53:57;;;;;;;10.54;9.71;;;;;;;4.37;81.44;101017.28;457432;115;923006;-72
2022/12/10 01:55:00;;;;;;;10.65;9.70;;;;;;;4.37;81.33;101026.23;457490;116;922862;-72
2022/12/10 01:56:03;;;;;;;10.32;9.41;;;;;;;4.37;81.37;101019.98;457584;114;922737;-71
2022/12/10 01:57:10;;;;;;;11.06;10.16;;;;;;;4.37;81.45;101023.53;457526;116;923008;-71
2022/12/10 01:58:15;;;;;;;11.55;10.33;;;;;;;4.38;81.38;101029.78;457319;114;922986;-71
2022/12/10 01:59:19;;;;;;;10.25;9.40;;;;;;;4.39;81.49;101024.23;452400;117;922847;-72
2022/12/10 02:00:22;;;;;;;11.79;10.61;;;;;;;4.40;81.49;101017.83;452616;117;922577;-72
2022/12/10 02:01:32;;;;;;;10.86;9.86;;;;;;;4.41;81.46;101019.48;452489;117;922939;-72
2022/12/10 02:02:42;;;;;;;12.07;10.69;;;;;;;4.42;81.47;101015.78;452802;115;922458;-71
2022/12/10 02:03:55;;;;;;;10.90;9.79;;;;;;;4.44;81.29;101015.63;451826;117;922864;-72
2022/12/10 02:05:08;;;;;;;11.06;10.17;;;;;;;4.42;81.33;101010.39;452366;117;922895;-72
2022/12/10 02:06:15;;;;;;;11.34;10.44;;;;;;;4.44;81.34;101015.63;452389;115;922853;-71
2022/12/10 02:07:38;;;;;;;10.57;9.68;;;;;;;4.43;81.45;101014.78;451692;117;922443;-72
2022/12/10 02:09:00;;;;;;;10.87;9.93;;;;;;;4.44;81.45;101021.03;452356;117;922582;-72
2022/12/10 02:10:18;;;;;;;11.24;9.62;;;;;;;4.44;81.33;101023.73;439860;120;922873;-72
2022/12/10 02:11:46;;;;;;;10.58;9.69;;;;;;;4.42;81.33;101015.78;448291;117;922697;-72
2022/12/10 02:12:59;;;;;;;11.19;10.26;;;;;;;4.42;81.40;101018.48;452419;115;922783;-72
2022/12/10 02:14:06;;;;;;;12.13;10.89;;;;;;;4.42;81.43;101020.34;452853;115;922553;-72
2022/12/10 02:15:25;;;;;;;11.29;10.29;;;;;;;4.41;81.45;101011.39;452629;115;923473;-72
2022/12/10 02:16:47;;;;;;;12.03;10.84;;;;;;;4.41;81.56;101022.19;452347;115;922498;-72
2022/12/10 02:17:54;;;;;;;11.34;10.36;;;;;;;4.42;81.46;101012.23;452835;115;922993;-72
2022/12/10 02:19:00;;;;;;;11.28;10.28;;;;;;;4.41;81.48;101019.48;452439;115;922936;-72
2022/12/10 02:20:16;;;;;;;11.81;10.81;;;;;;;4.42;81.50;101014.94;453010;115;922855;-72
2022/12/10 02:21:28;;;;;;;12.34;11.32;;;;;;;4.42;81.48;101018.48;452331;115;922997;-71
2022/12/10 02:22:36;;;;;;;12.04;10.88;;;;;;;4.42;81.48;101023.88;445293;117;922922;-71
2022/12/10 02:23:45;;;;;;;12.36;11.22;;;;;;;4.40;81.52;101016.98;446267;117;922633;-71
2022/12/10 02:24:51;;;;;;;12.51;11.32;;;;;;;4.40;81.55;101020.52;452371;117;922606;-71
2022/12/10 02:25:58;;;;;;;12.72;11.57;;;;;;;4.39;81.62;101013.42;452359;115;922548;-71
2022/12/10 02:27:14;;;;;;;12.03;10.93;;;;;;;4.39;81.60;101021.53;452399;117;923048;-71
2022/12/10 02:28:29;;;;;;;13.53;12.26;;;;;;;4.41;81.62;101015.97;452747;115;922609;-72
2022/12/10 02:29:33;;;;;;;11.69;10.67;;;;;;;4.40;81.76;101020.52;452353;117;922516;-71
2022/12/10 02:30:38;;;;;;;12.31;11.10;;;;;;;4.42;81.76;101012.23;452475;117;922524;-72
2022/12/10 02:31:45;;;;;;;12.67;11.66;;;;;;;4.42;81.69;101004.14;452364;117;922550;-72
2022/12/10 02:32:50;;;;;;;13.35;11.31;;;;;;;4.43;81.84;101003.13;452381;117;923077;-71
2022/12/10 02:33:57;;;;;;;12.25;11.14;;;;;;;4.45;81.75;101015.48;452425;117;922431;-72
2022/12/10 02:35:05;;;;;;;12.58;11.43;;;;;;;4.45;81.71;101020.03;452368;117;922671;-71
2022/12/10 02:36:11;;;;;;;13.53;12.21;;;;;;;4.45;81.70;101015.48;452614;115;922509;-71
2022/12/10 02:37:27;;;;;;;14.44;13.09;;;;;;;4.46;81.74;101021.72;452416;117;922572;-72
2022/12/10 02:38:35;;;;;;;13.14;11.93;;;;;;;4.46;81.82;101016.32;452489;115;930441;-72
2022/12/10 02:39:41;;;;;;;16.04;13.51;;;;;;;4.45;81.76;101012.77;452362;117;922933;-71
2022/12/10 02:40:48;;;;;;;13.48;12.31;;;;;;;4.46;81.93;101013.63;452353;115;922942;-69
2022/12/10 02:41:54;;;;;;;13.69;12.55;;;;;;;4.46;81.80;101014.47;452330;117;922878;-72
2022/12/10 02:42:57;;;;;;;14.02;12.54;;;;;;;4.44;81.83;101016.48;439494;120;922976;-72
2022/12/10 02:44:03;;;;;;;14.28;12.98;;;;;;;4.44;81.94;101016.48;440131;117;922635;-72
2022/12/10 02:45:08;;;;;;;14.24;12.77;;;;;;;4.45;81.84;101023.58;452337;117;922971;-72
2022/12/10 02:46:12;;;;;;;14.00;12.64;;;;;;;4.45;81.87;101014.62;452376;115;923182;-72
2022/12/10 02:47:17;;;;;;;17.44;13.81;;;;;;;4.45;81.86;101020.88;460222;115;930420;-72
2022/12/10 02:48:22;;;;;;;14.28;12.89;;;;;;;4.45;81.96;101023.58;459622;115;922591;-72
2022/12/10 02:49:27;;;;;;;14.99;13.06;;;;;;;4.44;81.80;101023.73;452521;117;922562;-72
2022/12/10 02:50:31;;;;;;;13.68;12.34;;;;;;;4.43;81.89;101019.33;452345;117;923294;-70
2022/12/10 02:51:34;;;;;;;13.86;12.61;;;;;;;4.44;81.87;101019.17;452501;117;922578;-70
2022/12/10 02:52:37;;;;;;;14.84;13.43;;;;;;;4.44;81.89;101026.43;452509;117;930296;-72
2022/12/10 02:53:45;;;;;;;14.69;13.47;;;;;;;4.44;82.08;101013.78;451929;116;922549;-70
2022/12/10 02:54:49;;;;;;;15.73;14.11;;;;;;;4.44;82.01;101023.73;446871;118;922551;-71
2022/12/10 02:56:00;;;;;;;15.56;13.29;;;;;;;4.45;81.99;101026.27;446400;116;922608;-70
2022/12/10 02:57:10;;;;;;;14.75;13.36;;;;;;;4.46;82.11;101022.57;446349;118;922551;-71
2022/12/10 02:58:25;;;;;;;15.54;13.14;;;;;;;4.46;82.08;101030.67;446906;114;922687;-71
2022/12/10 02:59:35;;;;;;;14.63;13.23;;;;;;;4.47;81.95;101029.63;446923;118;922997;-71
2022/12/10 03:00:45;;;;;;;14.40;13.11;;;;;;;4.47;81.99;101026.94;446950;116;922642;-72
2022/12/10 03:02:04;;;;;;;14.74;13.46;;;;;;;4.46;82.05;101019.87;446674;118;922624;-72
2022/12/10 03:03:17;;;;;;;15.12;13.64;;;;;;;4.48;82.10;101027.78;446812;118;930680;-72
2022/12/10 03:04:40;;;;;;;15.77;14.22;;;;;;;4.47;82.14;101018.83;446939;118;922526;-72
2022/12/10 03:05:49;;;;;;;14.32;13.04;;;;;;;4.48;82.28;101019.69;446985;116;922511;-71
2022/12/10 03:06:56;;;;;;;18.63;14.89;;;;;;;4.47;82.27;101024.23;447195;118;922516;-71
2022/12/10 03:08:15;;;;;;;15.19;13.68;;;;;;;4.48;82.14;101022.38;446925;118;922657;-71
2022/12/10 03:09:25;;;;;;;15.96;14.42;;;;;;;4.48;82.19;101022.38;446891;118;922883;-72
2022/12/10 03:10:41;;;;;;;15.27;13.83;;;;;;;4.58;82.27;101012.27;482171;110;947119;-71
2022/12/10 03:11:47;;;;;;;15.69;14.15;;;;;;;4.45;82.25;101015.48;465510;114;922552;-71
2022/12/10 03:12:57;;;;;;;14.93;13.36;;;;;;;4.45;82.13;101012.77;465482;114;922580;-71
2022/12/10 03:14:09;;;;;;;15.78;13.96;;;;;;;4.46;82.18;101013.63;465483;114;922626;-71
2022/12/10 03:15:15;;;;;;;14.29;12.88;;;;;;;4.45;82.29;101012.77;464836;114;922590;-72
2022/12/10 03:16:20;;;;;;;14.93;13.57;;;;;;;4.45;82.21;101006.52;465438;114;922513;-72
2022/12/10 03:17:23;;;;;;;15.28;13.91;;;;;;;4.44;82.30;101000.28;465488;114;922944;-72
2022/12/10 03:18:29;;;;;;;15.59;14.23;;;;;;;4.44;82.23;100996.73;465603;114;930316;-72
2022/12/10 03:19:41;;;;;;;14.72;13.27;;;;;;;4.44;82.37;101004.83;465521;114;922623;-71
2022/12/10 03:20:46;;;;;;;15.23;13.69;;;;;;;4.45;82.25;101010.08;465475;114;922918;-71
2022/12/10 03:21:52;;;;;;;14.95;13.52;;;;;;;4.44;82.36;101008.38;465521;114;922925;-71
2022/12/10 03:22:58;;;;;;;15.33;13.59;;;;;;;4.46;82.23;101008.22;465316;114;930305;-71
2022/12/10 03:24:03;;;;;;;14.45;13.06;;;;;;;4.46;82.37;100992.87;465555;114;922860;-71
2022/12/10 03:25:07;;;;;;;14.88;13.46;;;;;;;4.46;82.29;101000.97;465499;114;922588;-71
2022/12/10 03:26:11;;;;;;;13.72;12.47;;;;;;;4.47;82.33;101001.78;465489;114;922589;-71
2022/12/10 03:27:17;;;;;;;15.60;14.13;;;;;;;4.47;82.49;100997.23;465594;114;923008;-71
2022/12/10 03:28:22;;;;;;;14.77;13.41;;;;;;;4.48;82.36;101003.48;465440;114;930796;-71
2022/12/10 03:29:29;;;;;;;15.66;14.19;;;;;;;4.48;82.42;100992.68;465503;114;922512;-72
2022/12/10 03:30:34;;;;;;;14.66;13.48;;;;;;;4.48;82.57;100995.38;464816;114;922300;-71
2022/12/10 03:31:39;;;;;;;19.58;13.77;;;;;;;4.47;82.45;100989.13;465485;114;922911;-72
2022/12/10 03:32:44;;;;;;;14.82;13.49;;;;;;;4.48;82.49;100982.73;465521;114;922476;-72
2022/12/10 03:33:48;;;;;;;15.74;14.13;;;;;;;4.48;82.57;100988.12;465512;114;922754;-72
2022/12/10 03:34:54;;;;;;;17.21;14.33;;;;;;;4.49;82.63;100989.83;465591;114;922533;-71
2022/12/10 03:35:57;;;;;;;16.84;15.14;;;;;;;4.49;82.78;100987.13;465440;114;922528;-72
2022/12/10 03:37:01;;;;;;;15.15;13.57;;;;;;;4.49;82.76;100984.42;465695;114;922474;-72
2022/12/10 03:38:04;;;;;;;15.44;14.14;;;;;;;4.50;82.69;100980.72;465599;114;922841;-72
2022/12/10 03:39:08;;;;;;;15.72;14.28;;;;;;;4.50;82.66;100986.13;465610;114;923127;-72
2022/12/10 03:40:12;;;;;;;16.38;14.86;;;;;;;4.51;82.78;100986.97;465631;114;922697;-71
2022/12/10 03:41:15;;;;;;;16.66;15.05;;;;;;;4.51;82.64;100986.97;465554;114;922929;-71
2022/12/10 03:42:19;;;;;;;15.86;14.34;;;;;;;4.51;82.62;100989.67;465716;114;922825;-72
2022/12/10 03:43:22;;;;;;;14.91;13.51;;;;;;;4.51;82.76;100989.67;465673;113;922808;-72
2022/12/10 03:44:34;;;;;;;16.22;14.71;;;;;;;4.49;82.70;100986.28;465557;114;922488;-72
2022/12/10 03:45:37;;;;;;;14.88;13.54;;;;;;;4.50;82.84;100991.52;465454;114;922522;-72
2022/12/10 03:46:40;;;;;;;15.88;14.40;;;;;;;4.49;82.91;100992.52;465578;114;922546;-71
2022/12/10 03:47:43;;;;;;;17.96;14.69;;;;;;;4.49;82.98;100989.83;465662;114;922461;-72
2022/12/10 03:48:47;;;;;;;15.08;13.66;;;;;;;4.50;82.95;100990.67;465598;114;922985;-71
2022/12/10 03:49:50;;;;;;;15.03;13.62;;;;;;;4.49;83.08;100989.83;465647;114;922467;-72
2022/12/10 03:50:53;;;;;;;16.19;14.28;;;;;;;4.50;83.12;100994.22;465592;114;922473;-72
2022/12/10 03:51:57;;;;;;;15.94;14.40;;;;;;;4.49;82.95;100987.13;465627;114;930368;-71
2022/12/10 03:53:00;;;;;;;16.65;15.23;;;;;;;4.47;83.08;100985.59;465684;114;922569;-71
2022/12/10 03:54:03;;;;;;;15.30;13.99;;;;;;;4.46;83.12;100983.92;465641;114;923261;-72
2022/12/10 03:55:06;;;;;;;19.99;15.26;;;;;;;4.45;83.11;100984.93;465629;114;922674;-71
2022/12/10 03:56:10;;;;;;;15.91;14.58;;;;;;;4.45;83.15;101001.97;465624;112;922631;-72
2022/12/10 03:57:13;;;;;;;15.50;14.06;;;;;;;4.45;83.08;100998.42;465623;114;922514;-71
2022/12/10 03:58:16;;;;;;;16.56;14.14;;;;;;;4.44;83.14;100997.58;465088;114;930486;-71
2022/12/10 03:59:21;;;;;;;18.63;15.48;;;;;;;4.45;83.17;100993.03;457292;116;922618;-71
2022/12/10 04:00:25;;;;;;;17.14;15.02;;;;;;;4.45;83.33;100991.17;457488;116;922805;-70
2022/12/10 04:01:28;;;;;;;16.87;15.20;;;;;;;4.47;83.26;100985.59;457539;114;922440;-71
2022/12/10 04:02:31;;;;;;;17.16;15.43;;;;;;;4.46;83.36;100987.47;457567;116;922573;-71
2022/12/10 04:03:36;;;;;;;16.39;14.93;;;;;;;4.47;83.22;100991.83;457568;116;922519;-72
2022/12/10 04:04:40;;;;;;;16.34;14.88;;;;;;;4.48;83.32;100985.43;457379;116;922607;-71
2022/12/10 04:05:43;;;;;;;17.50;16.02;;;;;;;4.49;83.21;100987.13;457544;116;922793;-72
2022/12/10 04:06:46;;;;;;;16.73;15.11;;;;;;;4.50;83.19;100988.82;457600;116;923081;-72
2022/12/10 04:07:49;;;;;;;17.36;15.29;;;;;;;4.50;83.21;100987.97;457578;116;923169;-72
2022/12/10 04:08:53;;;;;;;16.64;15.23;;;;;;;4.51;83.33;100977.02;457588;116;923083;-72
2022/12/10 04:09:58;;;;;;;18.01;15.52;;;;;;;4.52;83.18;100984.08;456824;116;922536;-71
2022/12/10 07:59:12;;;;;;;18.76;17.11;;;;;;;4.14;91.18;101004.39;506549;105;947109;-77
2022/12/10 08:00:16;;;;;;;19.31;17.52;;;;;;;4.11;90.73;100999.33;496707;107;922529;-78
2022/12/10 08:01:25;;;;;;;17.68;16.16;;;;;;;4.18;90.58;101002.23;496563;107;922957;-78
2022/12/10 08:02:28;;;;;;;17.69;16.01;;;;;;;4.29;90.43;100995.69;496470;107;930490;-77
2022/12/10 08:03:31;;;;;;;19.48;17.79;;;;;;;4.29;90.43;100995.69;496792;107;922397;-79
2022/12/10 08:04:34;;;;;;;19.56;16.16;;;;;;;4.33;90.21;101010.53;496781;107;922821;-78
2022/12/10 08:05:37;;;;;;;18.24;16.66;;;;;;;4.37;90.04;101012.73;496779;107;923274;-77
2022/12/10 08:06:40;;;;;;;18.47;16.78;;;;;;;4.41;90.03;101003.29;496800;107;922480;-78
2022/12/10 08:07:43;;;;;;;20.16;16.26;;;;;;;4.46;89.99;101017.17;496807;107;922456;-80
2022/12/10 08:08:48;;;;;;;16.47;15.11;;;;;;;4.49;90.09;101000.63;496745;107;922590;-76
2022/12/10 08:09:51;;;;;;;17.46;15.94;;;;;;;4.53;90.02;100996.58;496729;107;922555;-77
2022/12/10 08:10:54;;;;;;;17.77;16.29;;;;;;;4.58;89.91;101002.32;496721;107;922393;-77
2022/12/10 08:11:57;;;;;;;15.81;14.41;;;;;;;4.62;89.82;101000.16;496817;107;922453;-78
2022/12/10 08:13:00;;;;;;;15.45;14.11;;;;;;;4.66;89.77;100998.80;496812;107;922410;-76
2022/12/10 08:14:03;;;;;;;15.58;14.38;;;;;;;4.70;89.80;100994.75;496750;107;922944;-78
2022/12/10 08:15:07;;;;;;;15.98;14.69;;;;;;;4.73;89.68;100997.13;496827;107;922604;-77
2022/12/10 08:16:16;;;;;;;16.86;15.53;;;;;;;4.77;89.64;100984.12;496675;107;922909;-78
2022/12/10 08:17:19;;;;;;;15.58;14.39;;;;;;;4.80;89.54;100987.33;496596;107;922552;-78
2022/12/10 08:18:22;;;;;;;16.26;14.90;;;;;;;4.84;89.54;101002.21;496804;107;922448;-78
2022/12/10 08:19:26;;;;;;;17.78;16.36;;;;;;;4.87;89.42;100993.76;496800;107;922912;-80
2022/12/10 08:20:30;;;;;;;17.07;15.52;;;;;;;4.92;89.47;100993.25;496110;107;922972;-78
2022/12/10 08:21:34;;;;;;;17.17;15.77;;;;;;;4.96;89.33;100990.03;496825;107;922410;-79
2022/12/10 08:22:38;;;;;;;17.15;15.76;;;;;;;4.99;89.36;100995.12;496791;107;922699;-79
2022/12/10 08:23:42;;;;;;;16.18;14.77;;;;;;;5.02;89.11;100996.63;496591;107;923071;-78
2022/12/10 08:24:45;;;;;;;16.29;14.99;;;;;;;5.04;88.98;101003.56;496687;107;930438;-78
2022/12/10 08:25:48;;;;;;;15.58;14.38;;;;;;;5.08;88.92;101001.36;496829;107;923127;-77
2022/12/10 08:26:51;;;;;;;16.17;14.71;;;;;;;5.10;88.80;100996.64;496828;107;923315;-80
2022/12/10 08:27:55;;;;;;;16.37;14.98;;;;;;;5.13;88.93;101007.09;496762;107;922567;-77
2022/12/10 08:28:58;;;;;;;16.96;15.36;;;;;;;5.17;88.73;100997.66;496753;107;922409;-77
2022/12/10 08:30:01;;;;;;;17.38;15.81;;;;;;;5.20;88.80;101005.41;496698;107;922412;-77
2022/12/10 08:31:06;;;;;;;15.60;14.41;;;;;;;5.25;88.78;100999.48;496730;107;930493;-79
2022/12/10 08:32:12;;;;;;;16.98;15.57;;;;;;;5.27;88.56;101001.03;496608;107;922918;-80
2022/12/10 08:33:15;;;;;;;16.29;14.97;;;;;;;5.30;88.46;100995.27;496828;107;922502;-77
2022/12/10 08:34:19;;;;;;;16.57;15.22;;;;;;;5.33;88.34;100997.64;496640;107;922523;-80
2022/12/10 08:35:22;;;;;;;15.91;14.62;;;;;;;5.35;88.36;100998.30;496755;107;922478;-78
2022/12/10 08:36:25;;;;;;;16.37;15.06;;;;;;;5.38;88.12;100997.13;496787;107;930339;-79
2022/12/10 08:37:28;;;;;;;16.56;15.26;;;;;;;5.40;88.06;100998.63;496812;107;922970;-78
2022/12/10 08:38:31;;;;;;;16.24;14.94;;;;;;;5.42;88.01;100993.91;496715;107;922986;-80
2022/12/10 08:39:34;;;;;;;16.89;15.35;;;;;;;5.46;87.96;100992.53;496651;107;922822;-78
2022/12/10 08:40:42;;;;;;;16.00;14.57;;;;;;;5.48;88.02;100984.26;496791;107;922931;-79
2022/12/10 08:41:45;;;;;;;15.94;14.67;;;;;;;5.52;87.93;100984.75;496602;107;922605;-79
2022/12/10 08:42:48;;;;;;;17.12;15.48;;;;;;;5.54;87.79;100988.13;496698;107;922864;-78
2022/12/10 08:43:54;;;;;;;16.37;15.07;;;;;;;5.57;87.79;100976.98;495626;107;922539;-80
2022/12/10 08:44:57;;;;;;;17.29;15.76;;;;;;;5.60;87.73;100988.30;496730;107;922999;-78
2022/12/10 08:46:01;;;;;;;16.05;14.83;;;;;;;5.63;87.84;100977.11;496783;107;922344;-79
2022/12/10 08:47:04;;;;;;;16.23;14.93;;;;;;;5.65;87.66;100977.80;496736;107;922801;-79
2022/12/10 08:48:07;;;;;;;17.50;15.96;;;;;;;5.68;87.55;100973.92;496815;107;922970;-77